Time;durP1;ratioP1;P1;durP2;ratioP2;P2;SDS_P1;SDS_P2;PMS_P1;PMS_P2;Temp;Humidity;BMP_temperature;BMP_pressure;BME280_temperature;BME280_humidity;BME280_pressure;Samples;Min_cycle;Max_cycle;Signal;HPM_P1;HPM_P2
2023/08/14 00:01:16;;;;;;;4.60;3.50;;;17.90;74.20;;;;;;4999050;28;20045;-77
2023/08/14 00:03:42;;;;;;;3.45;2.45;;;17.90;74.30;;;;;;5014778;28;20081;-77
2023/08/14 00:06:08;;;;;;;3.08;2.53;;;17.90;74.40;;;;;;4966363;28;20042;-77
2023/08/14 00:08:33;;;;;;;3.05;2.10;;;17.80;74.40;;;;;;5013814;28;20042;-77
2023/08/14 00:10:59;;;;;;;4.47;3.47;;;17.80;74.40;;;;;;4998338;28;20044;-77
2023/08/14 00:13:25;;;;;;;8.52;4.55;;;17.80;74.40;;;;;;5014793;28;20044;-77
2023/08/14 00:15:51;;;;;;;4.65;3.00;;;17.80;74.50;;;;;;4982001;28;20057;-77
2023/08/14 00:18:17;;;;;;;3.85;2.75;;;17.80;74.40;;;;;;5014595;28;20073;-77
2023/08/14 00:20:44;;;;;;;3.28;2.20;;;17.80;74.50;;;;;;4998513;28;20052;-77
2023/08/14 00:23:09;;;;;;;3.47;2.00;;;17.80;74.50;;;;;;5014304;28;20096;-77
2023/08/14 00:25:35;;;;;;;3.85;1.90;;;17.80;74.50;;;;;;5016749;28;20503;-77
2023/08/14 00:28:01;;;;;;;2.55;1.98;;;17.80;74.50;;;;;;5001219;28;20057;-77
2023/08/14 00:30:27;;;;;;;3.05;2.10;;;17.80;74.50;;;;;;5017757;28;20392;-77
2023/08/14 00:32:53;;;;;;;3.40;1.98;;;17.80;74.50;;;;;;4985240;28;20037;-77
2023/08/14 00:35:19;;;;;;;3.17;1.95;;;17.80;74.40;;;;;;5017665;28;20049;-77
2023/08/14 00:37:49;;;;;;;3.78;2.22;;;17.90;74.40;;;;;;5001118;28;20052;-77
2023/08/14 00:40:16;;;;;;;3.53;2.10;;;17.90;74.40;;;;;;5017548;28;20041;-77
2023/08/14 00:42:45;;;;;;;3.53;2.33;;;17.90;74.40;;;;;;5017574;28;20696;-77
2023/08/14 00:45:11;;;;;;;4.40;2.83;;;17.90;74.20;;;;;;5028925;28;20124;-76
2023/08/14 00:47:38;;;;;;;3.33;2.13;;;17.90;74.10;;;;;;5036495;28;20044;-76
2023/08/14 00:50:05;;;;;;;4.90;2.33;;;17.90;74.10;;;;;;5035031;28;21334;-76
2023/08/14 00:52:32;;;;;;;2.53;1.60;;;17.90;74.00;;;;;;5032804;28;20037;-76
2023/08/14 00:55:00;;;;;;;3.92;2.35;;;17.90;73.90;;;;;;5034522;28;20086;-76
2023/08/14 00:57:28;;;;;;;2.78;1.73;;;17.90;73.80;;;;;;5031169;28;20361;-73
2023/08/14 00:59:54;;;;;;;2.95;1.90;;;17.90;73.70;;;;;;5035373;28;21667;-73
2023/08/14 01:02:20;;;;;;;4.40;1.90;;;17.90;73.60;;;;;;5035624;28;20104;-74
2023/08/14 01:04:46;;;;;;;1.80;1.33;;;17.90;73.50;;;;;;5026680;28;20060;-73
2023/08/14 01:07:11;;;;;;;3.28;1.67;;;17.90;73.40;;;;;;5033324;28;20090;-74
2023/08/14 01:09:37;;;;;;;3.22;1.98;;;17.90;73.30;;;;;;5029688;28;20043;-74
2023/08/14 01:12:09;;;;;;;2.53;1.75;;;17.90;73.20;;;;;;4984678;28;20099;-74
2023/08/14 01:14:36;;;;;;;1.77;1.38;;;17.90;73.20;;;;;;5035289;28;20162;-74
2023/08/14 01:17:08;;;;;;;3.80;1.52;;;17.90;73.00;;;;;;5035865;28;20068;-74
2023/08/14 01:19:39;;;;;;;2.60;1.38;;;17.90;72.90;;;;;;5032902;28;20094;-73
2023/08/14 01:22:24;;;;;;;2.13;1.40;;;17.90;73.00;;;;;;5017233;28;20041;-74
2023/08/14 01:24:59;;;;;;;3.35;1.77;;;17.80;72.90;;;;;;5013595;28;20033;-74
2023/08/14 01:27:26;;;;;;;3.58;1.75;;;17.80;72.80;;;;;;5029153;28;20053;-74
2023/08/14 01:29:57;;;;;;;2.67;1.95;;;17.80;72.90;;;;;;5027293;28;20049;-73
2023/08/14 01:32:23;;;;;;;2.28;1.67;;;17.80;72.90;;;;;;5027063;28;20603;-76
2023/08/14 01:34:49;;;;;;;2.92;1.90;;;17.70;72.90;;;;;;5016216;28;20053;-76
2023/08/14 01:37:36;;;;;;;5.15;1.90;;;17.70;73.00;;;;;;5013684;28;20077;-76
2023/08/14 01:40:33;;;;;;;2.83;2.00;;;17.70;73.00;;;;;;4997108;28;20096;-76
2023/08/14 01:43:03;;;;;;;4.13;2.50;;;17.70;72.90;;;;;;5009257;28;20045;-76
2023/08/14 01:45:32;;;;;;;2.33;1.48;;;17.70;72.80;;;;;;5013327;28;20100;-76
2023/08/14 01:47:59;;;;;;;3.50;2.78;;;17.60;72.90;;;;;;5013396;28;20038;-76
2023/08/14 01:50:27;;;;;;;2.65;2.20;;;17.60;72.90;;;;;;5013233;28;20045;-76
2023/08/14 01:52:54;;;;;;;4.13;2.35;;;17.60;73.00;;;;;;5012906;28;20133;-77
2023/08/14 01:55:20;;;;;;;3.67;2.72;;;17.60;73.10;;;;;;5012929;28;20038;-76
2023/08/14 01:57:45;;;;;;;3.30;2.58;;;17.50;73.20;;;;;;4964393;28;20052;-76
2023/08/14 02:00:11;;;;;;;3.97;2.97;;;17.50;73.50;;;;;;5012997;28;20042;-76
2023/08/14 02:02:37;;;;;;;5.65;3.42;;;17.50;73.60;;;;;;5012850;28;20041;-76
2023/08/14 02:05:03;;;;;;;6.60;3.10;;;17.40;73.70;;;;;;5012849;28;20128;-76
2023/08/14 02:07:29;;;;;;;4.43;2.55;;;17.40;73.90;;;;;;5013068;28;20397;-76
2023/08/14 02:09:54;;;;;;;5.32;3.25;;;17.40;74.00;;;;;;4996470;28;20049;-76
2023/08/14 02:12:20;;;;;;;8.10;4.15;;;17.30;74.10;;;;;;5012760;28;20034;-76
2023/08/14 02:14:46;;;;;;;6.72;3.88;;;17.20;74.40;;;;;;5012814;28;20034;-76
2023/08/14 02:17:11;;;;;;;6.88;4.22;;;17.20;74.70;;;;;;5012456;28;20042;-76
2023/08/14 02:19:37;;;;;;;3.90;3.00;;;17.10;74.80;;;;;;4996344;28;20038;-76
2023/08/14 02:22:03;;;;;;;3.35;2.60;;;17.10;74.90;;;;;;4996365;28;20065;-76
2023/08/14 02:24:28;;;;;;;4.18;3.00;;;17.00;75.10;;;;;;5012820;28;20045;-76
2023/08/14 02:26:54;;;;;;;3.88;2.90;;;17.00;75.20;;;;;;5012456;28;20053;-76
2023/08/14 02:29:20;;;;;;;4.68;3.40;;;17.00;75.40;;;;;;5012339;28;20045;-76
2023/08/14 02:31:47;;;;;;;6.68;4.90;;;16.90;75.50;;;;;;4996374;28;20068;-76
2023/08/14 02:34:42;;;;;;;5.53;4.35;;;16.90;75.70;;;;;;5012626;28;20042;-76
2023/08/14 02:37:09;;;;;;;7.80;5.07;;;16.90;75.70;;;;;;5012637;28;20041;-76
2023/08/14 02:39:34;;;;;;;7.95;5.80;;;16.80;75.80;;;;;;4996191;28;20511;-76
2023/08/14 02:42:00;;;;;;;7.32;5.63;;;16.80;76.00;;;;;;4996512;28;20041;-76
2023/08/14 02:44:25;;;;;;;7.35;4.80;;;16.80;76.10;;;;;;4996093;28;20512;-75
2023/08/14 02:46:53;;;;;;;5.45;4.90;;;16.80;76.20;;;;;;5012674;28;20132;-76
2023/08/14 02:49:19;;;;;;;4.03;3.40;;;16.70;76.30;;;;;;5012456;28;20136;-76
2023/08/14 02:51:44;;;;;;;3.13;2.30;;;16.70;76.40;;;;;;4996386;28;20441;-76
2023/08/14 02:54:10;;;;;;;5.68;3.97;;;16.70;76.60;;;;;;5012268;28;20469;-76
2023/08/14 02:56:36;;;;;;;3.85;3.40;;;16.60;76.60;;;;;;5012333;28;20049;-76
2023/08/14 02:59:02;;;;;;;6.68;5.88;;;16.60;76.70;;;;;;5012352;28;20489;-76
2023/08/14 03:01:28;;;;;;;7.18;5.43;;;16.60;76.80;;;;;;5012573;28;20049;-76
2023/08/14 03:03:53;;;;;;;8.40;5.93;;;16.60;76.80;;;;;;5012592;28;20052;-76
2023/08/14 03:06:19;;;;;;;6.60;5.43;;;16.60;76.90;;;;;;4996230;28;20124;-76
2023/08/14 03:08:45;;;;;;;6.80;4.43;;;16.60;77.00;;;;;;4995893;28;20477;-76
2023/08/14 03:11:11;;;;;;;6.63;5.97;;;16.60;77.20;;;;;;4995852;28;20089;-76
2023/08/14 03:13:37;;;;;;;6.88;5.72;;;16.50;77.20;;;;;;5011747;28;20034;-76
2023/08/14 03:16:03;;;;;;;7.38;6.15;;;16.50;77.30;;;;;;4995531;28;20042;-76
2023/08/14 03:18:28;;;;;;;7.22;5.97;;;16.50;77.50;;;;;;4995853;28;20044;-76
2023/08/14 03:20:54;;;;;;;5.68;3.78;;;16.50;77.50;;;;;;4980066;28;20042;-76
2023/08/14 03:23:20;;;;;;;4.72;4.00;;;16.40;77.50;;;;;;5012074;28;20081;-76
2023/08/14 03:25:45;;;;;;;4.35;3.75;;;16.40;77.60;;;;;;4995850;28;20397;-76
2023/08/14 03:28:11;;;;;;;4.70;3.25;;;16.40;77.70;;;;;;4995522;28;20057;-76
2023/08/14 03:30:41;;;;;;;7.57;5.13;;;16.40;77.70;;;;;;4995585;28;20042;-76
2023/08/14 03:33:07;;;;;;;5.68;4.38;;;16.50;77.80;;;;;;4995651;28;20049;-76
2023/08/14 03:35:32;;;;;;;5.43;4.40;;;16.40;77.60;;;;;;5011980;28;20034;-76
2023/08/14 03:37:58;;;;;;;6.63;4.72;;;16.40;77.60;;;;;;4995753;28;20140;-76
2023/08/14 03:40:24;;;;;;;7.75;5.60;;;16.40;77.50;;;;;;5012186;28;20046;-76
2023/08/14 03:42:50;;;;;;;9.48;6.75;;;16.40;77.50;;;;;;5012152;28;20442;-76
2023/08/14 03:45:16;;;;;;;6.75;5.90;;;16.40;77.40;;;;;;4999389;28;20069;-76
2023/08/14 03:47:41;;;;;;;8.00;6.47;;;16.40;77.50;;;;;;4998502;28;20081;-76
2023/08/14 03:50:07;;;;;;;7.03;6.32;;;16.40;77.60;;;;;;5014896;28;20041;-76
2023/08/14 03:52:33;;;;;;;7.90;6.10;;;16.30;77.60;;;;;;5014742;28;20072;-76
2023/08/14 03:54:59;;;;;;;7.85;6.53;;;16.30;77.80;;;;;;4998651;28;20072;-76
2023/08/14 03:57:24;;;;;;;6.80;5.72;;;16.30;77.90;;;;;;5014660;28;20069;-76
2023/08/14 03:59:50;;;;;;;8.30;6.55;;;16.30;78.10;;;;;;5014599;28;20034;-76
2023/08/14 04:02:16;;;;;;;9.52;7.15;;;16.20;78.20;;;;;;5014631;28;20405;-76
2023/08/14 04:04:41;;;;;;;8.95;6.65;;;16.20;78.30;;;;;;5015352;28;20096;-76
2023/08/14 04:07:07;;;;;;;9.23;6.78;;;16.20;78.50;;;;;;4998594;28;20457;-76
2023/08/14 04:09:33;;;;;;;6.60;5.40;;;16.10;78.60;;;;;;4998504;28;20112;-76
2023/08/14 04:12:01;;;;;;;9.45;7.28;;;16.10;78.80;;;;;;5015055;28;20128;-76
2023/08/14 04:14:27;;;;;;;7.93;6.18;;;16.10;79.50;;;;;;4998737;28;20042;-76
2023/08/14 04:16:54;;;;;;;9.23;6.95;;;16.10;79.30;;;;;;5014471;28;20049;-76
2023/08/14 04:19:20;;;;;;;9.50;6.45;;;16.10;79.50;;;;;;5014655;28;20045;-76
2023/08/14 04:21:46;;;;;;;9.80;8.30;;;16.10;79.70;;;;;;4998481;28;20050;-76
2023/08/14 04:24:12;;;;;;;11.57;8.23;;;16.10;79.80;;;;;;5014562;28;20037;-76
2023/08/14 04:26:39;;;;;;;10.10;8.02;;;16.10;80.00;;;;;;4998150;28;20521;-76
2023/08/14 04:29:08;;;;;;;12.18;7.35;;;16.10;80.20;;;;;;5014154;28;20058;-76
2023/08/14 04:31:35;;;;;;;7.80;5.63;;;16.00;80.30;;;;;;4998529;28;20034;-76
2023/08/14 04:34:01;;;;;;;11.05;7.72;;;16.00;80.40;;;;;;5014423;28;20087;-76
2023/08/14 04:36:28;;;;;;;10.40;7.78;;;16.00;80.40;;;;;;4998101;28;20045;-76
2023/08/14 04:38:53;;;;;;;8.52;7.18;;;16.00;80.50;;;;;;4998055;28;20188;-76
2023/08/14 04:41:19;;;;;;;10.73;6.63;;;16.00;80.70;;;;;;4998079;28;20132;-76
2023/08/14 04:43:45;;;;;;;12.13;8.07;;;16.00;80.70;;;;;;4998280;28;20049;-76
2023/08/14 04:46:11;;;;;;;8.45;6.20;;;16.10;80.90;;;;;;4982540;28;20636;-76
2023/08/14 04:48:37;;;;;;;7.72;6.53;;;16.10;81.00;;;;;;5014017;28;20045;-76
2023/08/14 04:51:05;;;;;;;12.82;9.13;;;16.10;81.00;;;;;;4997868;28;20088;-76
2023/08/14 04:53:31;;;;;;;11.63;9.30;;;16.10;81.20;;;;;;4997665;28;20029;-76
2023/08/14 04:55:57;;;;;;;12.68;9.30;;;16.10;81.30;;;;;;4997872;28;20072;-76
2023/08/14 04:58:22;;;;;;;11.27;9.48;;;16.10;81.50;;;;;;4997647;28;20511;-76
2023/08/14 05:00:48;;;;;;;9.48;8.52;;;16.10;81.60;;;;;;4997879;28;20046;-76
2023/08/14 05:03:14;;;;;;;12.82;9.57;;;16.10;81.80;;;;;;4997842;28;20038;-76
2023/08/14 05:05:39;;;;;;;11.90;9.45;;;16.10;81.90;;;;;;5014109;28;20492;-76
2023/08/14 05:08:05;;;;;;;12.82;9.75;;;16.10;82.10;;;;;;5013751;28;20468;-76
2023/08/14 05:10:32;;;;;;;11.00;9.30;;;16.10;82.20;;;;;;5013977;28;20042;-76
2023/08/14 05:12:58;;;;;;;16.98;10.10;;;16.10;82.50;;;;;;5013871;28;20033;-76
2023/08/14 05:15:24;;;;;;;12.55;9.52;;;16.10;82.60;;;;;;4997376;28;20496;-76
2023/08/14 05:17:49;;;;;;;14.80;11.05;;;16.10;82.90;;;;;;5013364;28;20045;-76
2023/08/14 05:20:16;;;;;;;14.48;11.05;;;16.10;83.00;;;;;;4997187;28;20124;-76
2023/08/14 05:22:43;;;;;;;15.07;9.98;;;16.20;83.30;;;;;;5013856;28;20115;-76
2023/08/14 05:25:10;;;;;;;14.73;9.82;;;16.20;83.50;;;;;;4997036;28;20045;-76
2023/08/14 05:27:38;;;;;;;12.73;9.50;;;16.20;83.70;;;;;;4980871;28;20165;-76
2023/08/14 05:30:05;;;;;;;11.75;9.68;;;16.20;83.90;;;;;;4997042;28;20474;-76
2023/08/14 05:32:31;;;;;;;15.32;9.98;;;16.20;84.10;;;;;;5013589;28;20366;-76
2023/08/14 05:34:57;;;;;;;15.25;10.60;;;16.30;84.70;;;;;;5013354;28;20044;-76
2023/08/14 05:37:23;;;;;;;18.25;10.70;;;16.30;84.30;;;;;;4981013;28;20038;-76
2023/08/14 05:39:48;;;;;;;14.07;10.70;;;16.30;84.50;;;;;;4996695;28;20525;-76
2023/08/14 05:42:15;;;;;;;15.10;10.98;;;16.40;84.60;;;;;;4996611;28;20049;-76
2023/08/14 05:44:41;;;;;;;13.10;9.82;;;16.40;84.70;;;;;;5013252;28;20049;-76
2023/08/14 05:47:06;;;;;;;15.00;9.52;;;16.40;84.80;;;;;;4996906;28;20053;-76
2023/08/14 05:49:32;;;;;;;15.25;10.57;;;16.50;85.00;;;;;;5012927;28;20124;-76
2023/08/14 05:51:58;;;;;;;18.00;10.60;;;16.50;85.10;;;;;;5013001;28;20042;-76
2023/08/14 05:54:23;;;;;;;11.43;9.80;;;16.50;85.20;;;;;;5013180;28;20050;-76
2023/08/14 05:56:50;;;;;;;17.13;11.18;;;16.60;85.30;;;;;;5013165;28;20033;-76
2023/08/14 05:59:16;;;;;;;15.40;9.68;;;16.60;85.30;;;;;;5012876;28;20081;-76
2023/08/14 06:01:42;;;;;;;13.70;9.30;;;16.70;85.50;;;;;;4997011;28;20081;-76
2023/08/14 06:04:08;;;;;;;11.50;10.40;;;16.70;85.60;;;;;;4980226;28;20100;-76
2023/08/14 06:06:33;;;;;;;14.10;9.98;;;16.80;85.60;;;;;;5012299;28;20077;-76
2023/08/14 06:09:00;;;;;;;11.13;9.73;;;16.80;85.70;;;;;;5012536;28;20038;-76
2023/08/14 06:11:26;;;;;;;14.55;9.73;;;16.90;85.70;;;;;;4996413;28;20084;-76
2023/08/14 06:13:51;;;;;;;14.13;9.75;;;16.90;85.60;;;;;;4996172;28;20073;-76
2023/08/14 06:16:17;;;;;;;12.50;10.73;;;17.00;85.50;;;;;;4996544;28;20042;-76
2023/08/14 06:18:42;;;;;;;15.45;11.20;;;17.10;85.60;;;;;;5012538;28;20486;-76
2023/08/14 06:21:08;;;;;;;12.00;9.45;;;17.10;85.60;;;;;;5012507;28;20049;-76
2023/08/14 06:23:34;;;;;;;12.95;8.63;;;17.20;85.50;;;;;;5012393;28;20045;-76
2023/08/14 06:25:59;;;;;;;12.85;10.07;;;17.20;85.40;;;;;;4995988;28;20084;-76
2023/08/14 06:28:25;;;;;;;11.85;10.20;;;17.30;85.40;;;;;;5012376;28;20049;-76
2023/08/14 06:30:51;;;;;;;13.95;10.43;;;17.30;85.30;;;;;;5012443;28;20045;-76
2023/08/14 06:33:17;;;;;;;11.63;10.10;;;17.30;85.10;;;;;;5012577;28;20041;-76
2023/08/14 06:35:42;;;;;;;12.43;10.25;;;17.40;85.10;;;;;;4996165;28;20401;-76
2023/08/14 06:38:08;;;;;;;9.60;8.48;;;17.40;85.00;;;;;;4995919;28;20103;-75
2023/08/14 06:40:34;;;;;;;12.45;8.70;;;17.50;85.00;;;;;;4996374;28;20092;-76
2023/08/14 06:42:59;;;;;;;16.08;10.57;;;17.50;84.90;;;;;;4995904;28;20566;-76
2023/08/14 06:45:25;;;;;;;15.10;9.82;;;17.50;84.80;;;;;;4995993;28;20077;-76
2023/08/14 06:47:51;;;;;;;14.13;10.63;;;17.60;84.80;;;;;;4995752;28;20041;-76
2023/08/14 06:50:17;;;;;;;15.02;10.25;;;17.60;84.70;;;;;;4979740;28;20034;-76
2023/08/14 06:52:42;;;;;;;13.07;10.05;;;17.70;85.00;;;;;;5012204;28;20038;-76
2023/08/14 06:55:08;;;;;;;13.73;10.13;;;17.70;85.10;;;;;;4995797;28;20042;-76
2023/08/14 06:57:34;;;;;;;13.57;9.63;;;17.80;85.30;;;;;;4995668;28;20038;-76
2023/08/14 07:00:06;;;;;;;13.85;9.20;;;17.90;85.60;;;;;;5012136;28;20042;-76
2023/08/14 07:02:32;;;;;;;13.55;9.55;;;18.10;85.50;;;;;;5012385;28;20034;-76
2023/08/14 07:04:57;;;;;;;11.20;7.45;;;18.20;85.30;;;;;;4979782;28;20496;-76
2023/08/14 07:07:23;;;;;;;12.25;8.70;;;18.40;85.10;;;;;;4995964;28;20136;-76
2023/08/14 07:09:48;;;;;;;9.40;8.07;;;18.50;84.80;;;;;;5011972;28;20038;-76
2023/08/14 07:12:14;;;;;;;14.07;8.93;;;18.70;84.60;;;;;;5012121;28;20100;-76
2023/08/14 07:14:40;;;;;;;11.40;7.85;;;18.90;84.60;;;;;;4996021;28;20125;-76
2023/08/14 07:17:05;;;;;;;11.20;8.07;;;19.10;84.00;;;;;;5012497;28;20495;-76
2023/08/14 07:19:31;;;;;;;10.95;7.20;;;19.20;83.70;;;;;;5015750;28;20041;-77
2023/08/14 07:21:57;;;;;;;10.77;7.70;;;19.50;82.90;;;;;;5015803;28;20050;-77
2023/08/14 07:24:24;;;;;;;10.07;6.43;;;19.60;82.10;;;;;;4999225;28;20046;-77
2023/08/14 07:26:49;;;;;;;10.18;7.13;;;19.80;81.40;;;;;;4999411;28;20133;-77
2023/08/14 07:29:15;;;;;;;9.02;7.30;;;19.90;81.10;;;;;;5015471;28;20137;-77
2023/08/14 07:31:41;;;;;;;7.95;6.00;;;20.00;81.30;;;;;;4999588;28;20046;-77
2023/08/14 07:34:06;;;;;;;10.48;6.80;;;20.20;80.40;;;;;;4999355;28;20060;-77
2023/08/14 07:36:32;;;;;;;11.43;7.50;;;20.30;79.80;;;;;;4983248;28;20541;-77
2023/08/14 07:38:58;;;;;;;10.27;7.32;;;20.40;79.20;;;;;;5015606;28;20366;-77
2023/08/14 07:41:24;;;;;;;9.93;7.18;;;20.50;78.90;;;;;;4999196;28;20118;-77
2023/08/14 07:43:49;;;;;;;12.00;7.40;;;20.60;78.90;;;;;;4998929;28;20128;-77
2023/08/14 07:46:17;;;;;;;8.90;6.28;;;20.70;78.70;;;;;;4999117;28;20049;-77
2023/08/14 07:48:42;;;;;;;10.93;6.82;;;20.70;78.10;;;;;;4999098;28;20520;-77
2023/08/14 07:51:08;;;;;;;11.30;7.80;;;20.80;78.00;;;;;;4998919;28;20038;-77
2023/08/14 07:53:34;;;;;;;10.02;6.88;;;20.90;77.40;;;;;;4999138;28;20041;-77
2023/08/14 07:55:59;;;;;;;9.23;7.22;;;20.90;76.90;;;;;;5015163;28;20424;-77
2023/08/14 07:58:25;;;;;;;9.35;6.43;;;20.90;76.70;;;;;;4998858;28;20068;-77
2023/08/14 08:00:52;;;;;;;7.10;6.35;;;21.00;76.10;;;;;;5015194;28;20038;-77
2023/08/14 08:03:17;;;;;;;9.02;6.22;;;21.00;76.10;;;;;;4998915;28;20049;-77
2023/08/14 08:05:43;;;;;;;9.10;4.97;;;21.00;76.00;;;;;;5014835;28;20390;-77
2023/08/14 08:08:09;;;;;;;7.25;5.07;;;21.10;76.00;;;;;;4998359;28;20117;-77
2023/08/14 08:10:36;;;;;;;8.82;5.55;;;21.20;76.20;;;;;;4982253;28;20041;-77
2023/08/14 08:13:02;;;;;;;10.60;5.78;;;21.30;76.00;;;;;;4998510;28;20044;-77
2023/08/14 08:15:29;;;;;;;9.90;5.30;;;21.40;75.50;;;;;;5014671;28;20038;-77
2023/08/14 08:17:55;;;;;;;8.95;5.00;;;21.60;75.20;;;;;;4998461;28;20045;-77
2023/08/14 08:20:21;;;;;;;10.88;5.75;;;21.70;75.10;;;;;;4998252;28;20050;-78
2023/08/14 08:22:46;;;;;;;7.57;4.50;;;21.90;75.10;;;;;;4998555;28;20125;-78
2023/08/14 08:25:12;;;;;;;9.75;5.40;;;22.00;74.40;;;;;;4998278;28;20041;-78
2023/08/14 08:27:38;;;;;;;9.57;4.95;;;22.20;74.00;;;;;;4998133;28;20058;-78
2023/08/14 08:30:04;;;;;;;7.18;4.80;;;22.40;72.70;;;;;;5014055;28;20046;-78
2023/08/14 08:32:29;;;;;;;8.85;4.90;;;22.60;72.60;;;;;;5014627;28;20121;-78
2023/08/14 08:34:55;;;;;;;9.43;4.28;;;22.80;72.30;;;;;;4998058;28;20129;-78
2023/08/14 08:37:23;;;;;;;8.45;4.93;;;22.90;71.70;;;;;;4998404;28;20041;-78
2023/08/14 08:39:49;;;;;;;8.50;4.20;;;23.20;70.60;;;;;;4997957;28;20052;-78
2023/08/14 08:42:15;;;;;;;7.03;3.63;;;23.30;69.70;;;;;;5014572;28;20038;-78
2023/08/14 08:44:45;;;;;;;9.35;4.10;;;23.40;68.80;;;;;;5004664;28;20099;-78
2023/08/14 08:47:16;;;;;;;8.57;3.47;;;23.60;68.60;;;;;;5033995;28;20103;-78
2023/08/14 08:49:43;;;;;;;5.75;3.10;;;23.60;68.00;;;;;;5034167;28;20049;-78
2023/08/14 08:52:10;;;;;;;5.80;3.20;;;23.70;67.60;;;;;;5033856;28;20484;-78
2023/08/14 08:54:36;;;;;;;6.43;2.72;;;23.90;67.10;;;;;;5033903;28;20037;-77
2023/08/14 08:57:04;;;;;;;8.23;2.53;;;24.00;66.80;;;;;;5017301;28;20701;-78
2023/08/14 08:59:31;;;;;;;5.70;2.13;;;24.20;67.10;;;;;;5033962;28;20522;-78
2023/08/14 09:01:57;;;;;;;8.77;2.70;;;24.50;65.40;;;;;;5033854;28;20072;-77
2023/08/14 09:04:22;;;;;;;5.00;2.10;;;24.60;64.20;;;;;;5033737;28;20481;-77
2023/08/14 09:06:48;;;;;;;4.30;1.42;;;24.80;63.00;;;;;;5017184;28;20038;-77
2023/08/14 09:09:14;;;;;;;3.90;1.67;;;24.90;61.60;;;;;;5016928;28;20037;-77
2023/08/14 09:11:40;;;;;;;4.75;1.75;;;25.10;59.50;;;;;;5016944;28;20047;-77
2023/08/14 09:14:06;;;;;;;3.90;1.95;;;25.20;57.80;;;;;;5033380;28;20124;-77
2023/08/14 09:16:32;;;;;;;6.03;1.83;;;25.30;57.60;;;;;;5017115;28;20042;-77
2023/08/14 09:18:59;;;;;;;4.43;1.80;;;25.30;57.20;;;;;;5016849;28;20081;-77
2023/08/14 09:21:26;;;;;;;7.85;1.60;;;25.40;58.50;;;;;;5033485;28;20051;-77
2023/08/14 09:23:53;;;;;;;2.67;1.10;;;25.50;58.20;;;;;;5000870;28;20038;-77
2023/08/14 09:26:19;;;;;;;3.28;1.30;;;25.70;55.60;;;;;;5033064;28;20061;-77
2023/08/14 09:28:46;;;;;;;3.92;1.20;;;25.80;55.10;;;;;;5016682;28;20068;-77
2023/08/14 09:31:12;;;;;;;5.13;1.25;;;26.00;55.20;;;;;;5033372;28;20042;-77
2023/08/14 09:33:40;;;;;;;3.35;1.58;;;26.20;54.80;;;;;;5033081;28;20041;-77
2023/08/14 09:36:06;;;;;;;5.70;1.60;;;26.30;55.30;;;;;;5016684;28;20095;-77
2023/08/14 09:38:32;;;;;;;3.83;1.67;;;26.60;55.60;;;;;;5032819;28;20148;-77
2023/08/14 09:40:59;;;;;;;4.07;1.40;;;26.80;54.70;;;;;;4999152;28;20049;-77
2023/08/14 09:43:25;;;;;;;3.85;1.40;;;27.00;54.30;;;;;;5031722;28;20095;-77
2023/08/14 09:45:52;;;;;;;3.45;1.20;;;27.30;53.50;;;;;;5032737;28;20045;-77
2023/08/14 09:48:18;;;;;;;5.55;1.80;;;27.50;53.30;;;;;;5016111;28;20484;-77
2023/08/14 09:50:51;;;;;;;5.72;1.98;;;27.70;52.10;;;;;;5032274;28;20033;-77
2023/08/14 09:53:17;;;;;;;4.88;2.53;;;27.90;52.00;;;;;;5032569;28;20048;-76
2023/08/14 09:55:43;;;;;;;4.85;1.85;;;28.00;51.30;;;;;;5031174;28;20049;-76
2023/08/14 09:58:10;;;;;;;3.50;1.70;;;28.10;50.60;;;;;;5032319;28;20120;-76
2023/08/14 10:00:38;;;;;;;3.80;1.77;;;28.20;51.50;;;;;;5015958;28;20041;-76
2023/08/14 10:03:07;;;;;;;4.15;1.80;;;28.40;51.30;;;;;;5016329;28;20041;-76
2023/08/14 10:05:33;;;;;;;5.25;1.75;;;28.40;49.80;;;;;;5032199;28;20038;-76
2023/08/14 10:08:01;;;;;;;4.97;1.63;;;28.50;49.80;;;;;;5031993;28;20057;-76
2023/08/14 10:10:31;;;;;;;5.15;1.80;;;28.50;48.30;;;;;;5032342;28;20503;-76
2023/08/14 10:13:01;;;;;;;4.10;1.40;;;28.50;49.20;;;;;;5031845;28;20067;-76
2023/08/14 10:15:31;;;;;;;3.55;1.45;;;28.50;50.30;;;;;;5031910;28;20103;-76
2023/08/14 10:18:01;;;;;;;4.50;1.48;;;28.50;50.00;;;;;;5031904;28;20096;-76
2023/08/14 10:20:31;;;;;;;5.15;1.83;;;28.60;49.70;;;;;;5031931;28;20045;-77
2023/08/14 10:22:58;;;;;;;3.13;1.30;;;28.70;50.10;;;;;;5032356;28;20080;-77
2023/08/14 10:25:24;;;;;;;5.25;1.40;;;28.70;50.30;;;;;;5032962;28;20370;-77
2023/08/14 10:27:51;;;;;;;5.45;1.65;;;28.80;49.30;;;;;;5034980;28;20099;-77
2023/08/14 10:30:22;;;;;;;4.45;1.73;;;28.90;48.60;;;;;;5035302;28;20045;-77
2023/08/14 10:32:49;;;;;;;5.43;1.60;;;29.00;49.40;;;;;;5034524;28;20365;-77
2023/08/14 10:35:14;;;;;;;2.97;1.48;;;29.20;48.20;;;;;;5029293;28;20033;-77
2023/08/14 10:37:49;;;;;;;3.67;1.33;;;29.20;47.30;;;;;;5011524;28;20130;-77
2023/08/14 10:40:23;;;;;;;2.45;1.30;;;29.20;48.00;;;;;;5035304;28;20048;-77
2023/08/14 10:42:57;;;;;;;3.75;1.67;;;29.30;48.70;;;;;;5017853;28;20037;-77
2023/08/14 10:45:25;;;;;;;5.10;1.40;;;29.40;47.80;;;;;;5015377;28;20072;-77
2023/08/14 10:47:51;;;;;;;3.15;1.25;;;29.50;46.00;;;;;;5033767;28;20040;-77
2023/08/14 10:50:23;;;;;;;5.13;1.48;;;29.50;45.90;;;;;;5002733;28;20049;-77
2023/08/14 10:52:51;;;;;;;4.70;1.38;;;29.50;46.80;;;;;;5038610;28;20071;-77
2023/08/14 10:55:37;;;;;;;2.15;0.93;;;29.50;45.70;;;;;;5041976;28;20041;-78
2023/08/14 10:58:35;;;;;;;2.85;1.10;;;29.50;44.70;;;;;;5025296;28;20106;-78
2023/08/14 11:01:05;;;;;;;4.43;1.38;;;29.50;45.40;;;;;;5035794;28;20049;-78
2023/08/14 11:03:54;;;;;;;4.15;1.83;;;29.50;44.20;;;;;;5041555;28;20075;-78
2023/08/14 11:06:28;;;;;;;3.22;1.10;;;29.50;44.80;;;;;;5025152;28;20047;-78
2023/08/14 11:08:58;;;;;;;3.70;1.10;;;29.50;44.60;;;;;;5040362;28;20489;-78
2023/08/14 11:11:25;;;;;;;5.93;1.85;;;29.40;44.90;;;;;;5027659;28;20120;-78
2023/08/14 11:13:51;;;;;;;3.45;1.40;;;29.40;44.00;;;;;;5034245;28;20106;-78
2023/08/14 11:16:17;;;;;;;4.72;1.73;;;29.30;43.40;;;;;;5034496;28;20041;-78
2023/08/14 11:18:43;;;;;;;3.67;1.48;;;29.30;43.30;;;;;;5034793;28;20508;-78
2023/08/14 11:21:12;;;;;;;2.90;1.00;;;29.20;43.20;;;;;;5034220;28;20037;-78
2023/08/14 11:23:38;;;;;;;3.40;1.17;;;29.20;43.70;;;;;;5034567;28;20120;-78
2023/08/14 11:26:03;;;;;;;3.63;1.20;;;29.20;43.70;;;;;;5033028;28;20116;-78
2023/08/14 11:28:31;;;;;;;3.15;1.20;;;29.20;44.80;;;;;;5019083;28;21692;-78
2023/08/14 11:30:57;;;;;;;5.45;1.27;;;29.20;44.90;;;;;;5015355;28;20052;-75
2023/08/14 11:33:23;;;;;;;4.05;1.52;;;29.30;44.20;;;;;;5031295;28;20468;-75
2023/08/14 11:35:52;;;;;;;4.07;1.40;;;29.20;44.00;;;;;;5015090;28;20048;-76
2023/08/14 11:38:19;;;;;;;4.22;1.33;;;29.20;44.60;;;;;;5015915;28;20061;-76
2023/08/14 11:40:45;;;;;;;4.90;1.80;;;29.20;44.40;;;;;;5032485;28;20119;-76
2023/08/14 11:43:12;;;;;;;3.72;1.17;;;29.20;44.30;;;;;;5033098;28;20175;-76
2023/08/14 11:45:38;;;;;;;5.13;1.42;;;29.10;44.80;;;;;;5033501;28;20048;-76
2023/08/14 11:48:06;;;;;;;3.03;1.20;;;29.20;45.30;;;;;;5015625;28;20423;-76
2023/08/14 11:50:32;;;;;;;4.72;1.60;;;29.20;46.30;;;;;;5016433;28;20033;-76
2023/08/14 11:52:58;;;;;;;4.00;1.50;;;29.30;46.30;;;;;;5015845;28;20123;-76
2023/08/14 11:55:24;;;;;;;2.97;1.40;;;29.30;45.50;;;;;;5001309;28;20123;-76
2023/08/14 11:57:51;;;;;;;5.55;1.38;;;29.30;43.60;;;;;;5015159;28;20568;-76
2023/08/14 12:00:16;;;;;;;5.15;1.77;;;29.30;44.20;;;;;;5015899;28;20129;-76
2023/08/14 12:02:42;;;;;;;5.82;2.05;;;29.30;45.30;;;;;;5030764;28;20116;-76
2023/08/14 12:05:08;;;;;;;3.63;1.70;;;29.30;44.80;;;;;;5011759;28;20364;-76
2023/08/14 12:07:35;;;;;;;3.90;1.65;;;29.30;44.60;;;;;;5013626;28;20112;-76
2023/08/14 12:10:07;;;;;;;4.05;1.40;;;29.30;45.10;;;;;;5028860;28;20049;-76
2023/08/14 12:12:33;;;;;;;4.15;1.58;;;29.20;45.20;;;;;;5012283;28;20065;-76
2023/08/14 12:14:59;;;;;;;4.28;1.90;;;29.20;45.30;;;;;;5013564;28;20076;-76
2023/08/14 12:17:25;;;;;;;4.57;1.60;;;29.20;44.80;;;;;;5029818;28;20599;-76
2023/08/14 12:19:53;;;;;;;4.57;1.88;;;29.00;45.10;;;;;;5029994;28;20052;-76
2023/08/14 12:22:23;;;;;;;4.40;1.80;;;29.00;45.50;;;;;;5030112;28;20045;-76
2023/08/14 12:24:49;;;;;;;6.80;2.08;;;29.00;46.10;;;;;;5029459;28;20057;-76
2023/08/14 12:27:27;;;;;;;5.30;1.95;;;29.10;45.70;;;;;;5027714;28;20159;-76
2023/08/14 12:29:54;;;;;;;5.63;1.95;;;29.00;45.00;;;;;;5026451;28;20069;-76
2023/08/14 12:32:22;;;;;;;6.88;2.13;;;29.00;45.90;;;;;;5028650;28;20045;-76
2023/08/14 12:34:48;;;;;;;6.28;2.10;;;29.00;45.60;;;;;;5012155;28;20029;-76
2023/08/14 12:37:15;;;;;;;4.25;1.70;;;29.00;44.50;;;;;;5013846;28;20132;-76
2023/08/14 12:39:45;;;;;;;4.85;1.90;;;28.90;42.90;;;;;;5027187;28;20037;-77
2023/08/14 12:42:11;;;;;;;5.93;2.17;;;28.90;43.90;;;;;;5028390;28;20057;-76